York, New York
Current Conditions -  °F | °C
As of 12:44 PM on Tuesday 21 Oct 2014 (Local Time) from KROC Reporting Station
Haze Haze  
Wind Chill: 53°   Ceiling: 500
Heat Index: 53°   Visibility: 3mi
Dew Point: 51°   Wind: 5mph
Humidity: 93%   Direction: 350°N
Pressure: 29.85"   Gusts: NA
Location:  42.87°N, 77.89°W
Report Text: KROC 211644Z 35004KT 3SM BR BKN005 OVC010 12/11 A2985 RMK AO2 RAB04E42 P0001 T01170106
Loading
Personal Weather Stations






























Interactive Weather Map
Tropical Storm Tracking
New forecast layout! Learn more

10-Day Weather Forecast

Advertisements
Track Severe Weather on mobile